Briefing drone pour Saint-didier-en-velay

Rechercher une autre localisation

Conditions de vol :


Nous sommes le : Vendredi 02 décembre 2022
Il est 12:12 UTC (13:12 LT)

Lever de soleil : 06:36 UTC (07:36 LT)
Coucher de soleil : 16:27 UTC (17:27 LT)

Météo

L'essentiel des conditions de vol

VIGILANCE MÉTÉO FRANCE - Haute-Loire (43)
Vigilance Jaune : Neige-verglas
CARTES DES FRONTS
METAR de LFMH
LFMH 021200Z AUTO VRB02KT 9999 OVC025 04/M00 Q1016

Date d'émission: 02/12/2022
Heure d'émission: 12:00 UTC
Vent: Variable 2 KT (4 km/h)
Visibilité horizontale: > 10 km
Plafond :
- Couvert à 2500ft (762m)
Température: 4 °C
Point de rosée: 0 °C
Humidité: 75%
Pression (QNH): 1016 hPa
TAF de LFMH
LFMH 161901Z 1619/1712 CNL

Conditions prévues :

Heure d'émission : Bulletin éffectué le 16 à 19:00 UTC
Prévision : Valide du 16 a 19:00 UTC au 17 a 12:00 UTC
Nuages : à 0ft (0 m)
WEBCAM POUR SAINT-DIDIER-EN-VELAY

Réglementation

Voler en sécurité

CARTES AERONAUTIQUE 1/500.000
CARTE AZBA (Reseau basse altitude)
CARTES VAC (LFMH)
SUP AIP




Chargement des AIP...
NOTAM (SAINT-DIDIER-EN-VELAY + Terrain à proximité / FIR )




Chargement des NOTAMS...
CONTACT PREFECTURE 43


Avertissement : Les données mises à disposition sont indicatives. Oxygène Drone ne pourra être tenu responsable de dégâts causés aux biens et aux personnes.